Check out our new PWSWeather beta!
PWSweather.com
Personal Weather Stations
Station Observations
OINOFYTA
Oinofyta Greece, OinofytaGR 320 11

Oinofyta GreeceOinofytaGR 320 11

Lat: 38.3080648, Lon: 23.6391172

Elevation: 354

Station Type: ProWeatherStation 1080

https://oinofytaweather.gr/

High Low Average
Temperature 53.8°F12.1°C 46.4°F8.0°C 49.9°F9.9°C
Dew Point 40.3°F4.6°C 29.3°F-1.5°C 34.8°F1.6°C
Winds 11.7 mph 18.8 kmh 1.7 mph 2.7 kmh 6.0 mph NW9.7 kmh NW
Wind Gusts 26.6 mph42.8 kmh 6.0 mph9.7 kmh 14.0 mph22.5 kmh
Humidity 79% 39% 56%
Pressure 30.37 in1028.4 mb 30.28 in1025.4 mb -
Precipitation 0.00 in0.0 mm - -
Hour Temp Dew Point Humidity Winds Wind Gusts Pressure Precip Precip Rate Daily Precip Total
12:00 AM 49.6°F9.8°C 38.4°F3.6°C 65% 3.0 mph NW4.8 kmh NW 7.6 mph12.2 kmh 30.31 in1026.4 mb 0.00 in0.0 mm 0.00 in0.0 mm 0.00 in0.0 mm
12:05 AM 49.3°F9.6°C 38.0°F3.3°C 65% 3.1 mph WNW5.0 kmh WNW 7.6 mph12.2 kmh 30.30 in1026.1 mb 0.00 in0.0 mm 0.00 in0.0 mm 0.00 in0.0 mm
12:10 AM 49.1°F9.5°C 37.9°F3.3°C 65% 3.1 mph WNW5.0 kmh WNW 6.9 mph11.1 kmh 30.30 in1026.1 mb 0.00 in0.0 mm 0.00 in0.0 mm 0.00 in0.0 mm
12:15 AM 48.9°F9.4°C 38.1°F3.4°C 66% 2.9 mph WNW4.7 kmh WNW 6.9 mph11.1 kmh 30.30 in1026.1 mb 0.00 in0.0 mm 0.00 in0.0 mm 0.00 in0.0 mm
12:20 AM 48.9°F9.4°C 37.7°F3.2°C 65% 2.5 mph WNW4.0 kmh WNW 6.9 mph11.1 kmh 30.30 in1026.1 mb 0.00 in0.0 mm 0.00 in0.0 mm 0.00 in0.0 mm
12:25 AM 49.1°F9.5°C 37.9°F3.3°C 65% 2.3 mph WNW3.7 kmh WNW 7.6 mph12.2 kmh 30.31 in1026.4 mb 0.00 in0.0 mm 0.00 in0.0 mm 0.00 in0.0 mm
12:30 AM 49.1°F9.5°C 37.9°F3.3°C 65% 2.1 mph WNW3.4 kmh WNW 7.6 mph12.2 kmh 30.30 in1026.1 mb 0.00 in0.0 mm 0.00 in0.0 mm 0.00 in0.0 mm
12:35 AM 49.5°F9.7°C 38.2°F3.4°C 65% 2.4 mph WNW3.9 kmh WNW 6.9 mph11.1 kmh 30.30 in1026.1 mb 0.00 in0.0 mm 0.00 in0.0 mm 0.00 in0.0 mm
12:40 AM 49.6°F9.8°C 38.4°F3.6°C 65% 3.2 mph WNW5.1 kmh WNW 9.2 mph14.8 kmh 30.30 in1026.1 mb 0.00 in0.0 mm 0.00 in0.0 mm 0.00 in0.0 mm
12:45 AM 50.0°F10.0°C 37.9°F3.3°C 63% 4.4 mph NW7.1 kmh NW 12.1 mph19.5 kmh 30.30 in1026.1 mb 0.00 in0.0 mm 0.00 in0.0 mm 0.00 in0.0 mm
12:50 AM 50.0°F10.0°C 37.5°F3.1°C 62% 5.1 mph NW8.2 kmh NW 12.1 mph19.5 kmh 30.30 in1026.1 mb 0.00 in0.0 mm 0.00 in0.0 mm 0.00 in0.0 mm
12:55 AM 50.0°F10.0°C 37.5°F3.1°C 62% 4.5 mph NW7.2 kmh NW 11.4 mph18.3 kmh 30.31 in1026.4 mb 0.00 in0.0 mm 0.00 in0.0 mm 0.00 in0.0 mm
01:00 AM 50.2°F10.1°C 37.3°F2.9°C 61% 4.8 mph WNW7.7 kmh WNW 10.7 mph17.2 kmh 30.30 in1026.1 mb 0.00 in0.0 mm 0.00 in0.0 mm 0.00 in0.0 mm
01:05 AM 50.2°F10.1°C 37.3°F2.9°C 61% 5.4 mph WNW8.7 kmh WNW 10.7 mph17.2 kmh 30.29 in1025.7 mb 0.00 in0.0 mm 0.00 in0.0 mm 0.00 in0.0 mm
01:10 AM 50.4°F10.2°C 37.8°F3.2°C 62% 5.6 mph NW9.0 kmh NW 13.0 mph20.9 kmh 30.30 in1026.1 mb 0.00 in0.0 mm 0.00 in0.0 mm 0.00 in0.0 mm
01:15 AM 50.2°F10.1°C 37.7°F3.2°C 62% 5.3 mph NW8.5 kmh NW 13.0 mph20.9 kmh 30.30 in1026.1 mb 0.00 in0.0 mm 0.00 in0.0 mm 0.00 in0.0 mm
01:20 AM 50.2°F10.1°C 38.1°F3.4°C 63% 5.0 mph NW8.0 kmh NW 12.1 mph19.5 kmh 30.29 in1025.7 mb 0.00 in0.0 mm 0.00 in0.0 mm 0.00 in0.0 mm
01:25 AM 50.2°F10.1°C 38.1°F3.4°C 63% 5.1 mph NW8.2 kmh NW 12.1 mph19.5 kmh 30.29 in1025.7 mb 0.00 in0.0 mm 0.00 in0.0 mm 0.00 in0.0 mm
01:30 AM 50.2°F10.1°C 37.7°F3.2°C 62% 5.1 mph NW8.2 kmh NW 11.4 mph18.3 kmh 30.29 in1025.7 mb 0.00 in0.0 mm 0.00 in0.0 mm 0.00 in0.0 mm
01:35 AM 50.2°F10.1°C 37.3°F2.9°C 61% 5.0 mph NW8.0 kmh NW 10.7 mph17.2 kmh 30.29 in1025.7 mb 0.00 in0.0 mm 0.00 in0.0 mm 0.00 in0.0 mm
01:40 AM 50.4°F10.2°C 37.0°F2.8°C 60% 6.0 mph NW9.7 kmh NW 12.1 mph19.5 kmh 30.29 in1025.7 mb 0.00 in0.0 mm 0.00 in0.0 mm 0.00 in0.0 mm
01:45 AM 50.5°F10.3°C 36.8°F2.7°C 59% 7.7 mph NW12.4 kmh NW 15.2 mph24.5 kmh 30.29 in1025.7 mb 0.00 in0.0 mm 0.00 in0.0 mm 0.00 in0.0 mm
01:50 AM 50.5°F10.3°C 36.8°F2.7°C 59% 8.2 mph NW13.2 kmh NW 15.2 mph24.5 kmh 30.29 in1025.7 mb 0.00 in0.0 mm 0.00 in0.0 mm 0.00 in0.0 mm
01:55 AM 50.4°F10.2°C 37.0°F2.8°C 60% 7.1 mph NW11.4 kmh NW 15.2 mph24.5 kmh 30.28 in1025.4 mb 0.00 in0.0 mm 0.00 in0.0 mm 0.00 in0.0 mm
02:00 AM 50.2°F10.1°C 36.8°F2.7°C 60% 6.0 mph NW9.7 kmh NW 13.6 mph21.9 kmh 30.28 in1025.4 mb 0.00 in0.0 mm 0.00 in0.0 mm 0.00 in0.0 mm
02:05 AM 49.8°F9.9°C 36.9°F2.7°C 61% 4.2 mph NW6.8 kmh NW 10.7 mph17.2 kmh 30.29 in1025.7 mb 0.00 in0.0 mm 0.00 in0.0 mm 0.00 in0.0 mm
02:10 AM 49.8°F9.9°C 36.9°F2.7°C 61% 2.9 mph WNW4.7 kmh WNW 9.8 mph15.8 kmh 30.29 in1025.7 mb 0.00 in0.0 mm 0.00 in0.0 mm 0.00 in0.0 mm
02:15 AM 50.0°F10.0°C 36.7°F2.6°C 60% 3.2 mph NW5.1 kmh NW 7.6 mph12.2 kmh 30.29 in1025.7 mb 0.00 in0.0 mm 0.00 in0.0 mm 0.00 in0.0 mm
02:20 AM 50.0°F10.0°C 36.7°F2.6°C 60% 3.9 mph WNW6.3 kmh WNW 9.2 mph14.8 kmh 30.29 in1025.7 mb 0.00 in0.0 mm 0.00 in0.0 mm 0.00 in0.0 mm
02:25 AM 50.0°F10.0°C 36.2°F2.3°C 59% 4.6 mph NW7.4 kmh NW 13.0 mph20.9 kmh 30.28 in1025.4 mb 0.00 in0.0 mm 0.00 in0.0 mm 0.00 in0.0 mm
02:30 AM 50.2°F10.1°C 36.4°F2.4°C 59% 5.0 mph NW8.0 kmh NW 13.6 mph21.9 kmh 30.28 in1025.4 mb 0.00 in0.0 mm 0.00 in0.0 mm 0.00 in0.0 mm
02:35 AM 50.0°F10.0°C 36.7°F2.6°C 60% 3.7 mph NW6.0 kmh NW 13.6 mph21.9 kmh 30.28 in1025.4 mb 0.00 in0.0 mm 0.00 in0.0 mm 0.00 in0.0 mm
02:40 AM 50.2°F10.1°C 36.8°F2.7°C 60% 3.7 mph NW6.0 kmh NW 14.5 mph23.3 kmh 30.28 in1025.4 mb 0.00 in0.0 mm 0.00 in0.0 mm 0.00 in0.0 mm
02:45 AM 50.4°F10.2°C 37.0°F2.8°C 60% 6.5 mph NW10.5 kmh NW 16.8 mph27.0 kmh 30.28 in1025.4 mb 0.00 in0.0 mm 0.00 in0.0 mm 0.00 in0.0 mm
02:50 AM 50.2°F10.1°C 37.3°F2.9°C 61% 6.1 mph NW9.8 kmh NW 16.8 mph27.0 kmh 30.28 in1025.4 mb 0.00 in0.0 mm 0.00 in0.0 mm 0.00 in0.0 mm
02:55 AM 50.0°F10.0°C 37.5°F3.1°C 62% 4.7 mph NW7.6 kmh NW 12.1 mph19.5 kmh 30.28 in1025.4 mb 0.00 in0.0 mm 0.00 in0.0 mm 0.00 in0.0 mm
03:00 AM 50.0°F10.0°C 37.9°F3.3°C 63% 5.1 mph NW8.2 kmh NW 12.1 mph19.5 kmh 30.29 in1025.7 mb 0.00 in0.0 mm 0.00 in0.0 mm 0.00 in0.0 mm
03:05 AM 50.0°F10.0°C 37.9°F3.3°C 63% 5.2 mph NW8.4 kmh NW 13.0 mph20.9 kmh 30.28 in1025.4 mb 0.00 in0.0 mm 0.00 in0.0 mm 0.00 in0.0 mm
03:10 AM 49.8°F9.9°C 37.3°F2.9°C 62% 5.7 mph NNW9.2 kmh NNW 13.0 mph20.9 kmh 30.28 in1025.4 mb 0.00 in0.0 mm 0.00 in0.0 mm 0.00 in0.0 mm
03:15 AM 50.0°F10.0°C 37.1°F2.8°C 61% 5.8 mph NNW9.3 kmh NNW 13.0 mph20.9 kmh 30.28 in1025.4 mb 0.00 in0.0 mm 0.00 in0.0 mm 0.00 in0.0 mm
03:20 AM 50.0°F10.0°C 36.7°F2.6°C 60% 6.1 mph NW9.8 kmh NW 13.0 mph20.9 kmh 30.28 in1025.4 mb 0.00 in0.0 mm 0.00 in0.0 mm 0.00 in0.0 mm
03:25 AM 50.0°F10.0°C 36.7°F2.6°C 60% 6.1 mph NW9.8 kmh NW 13.0 mph20.9 kmh 30.28 in1025.4 mb 0.00 in0.0 mm 0.00 in0.0 mm 0.00 in0.0 mm
03:30 AM 50.2°F10.1°C 36.4°F2.4°C 59% 6.4 mph NW10.3 kmh NW 13.0 mph20.9 kmh 30.28 in1025.4 mb 0.00 in0.0 mm 0.00 in0.0 mm 0.00 in0.0 mm
03:35 AM 50.4°F10.2°C 36.2°F2.3°C 58% 7.1 mph NW11.4 kmh NW 13.6 mph21.9 kmh 30.28 in1025.4 mb 0.00 in0.0 mm 0.00 in0.0 mm 0.00 in0.0 mm
03:40 AM 50.4°F10.2°C 36.6°F2.6°C 59% 6.8 mph NNW10.9 kmh NNW 13.6 mph21.9 kmh 30.28 in1025.4 mb 0.00 in0.0 mm 0.00 in0.0 mm 0.00 in0.0 mm
03:45 AM 50.2°F10.1°C 36.4°F2.4°C 59% 6.1 mph NNW9.8 kmh NNW 12.1 mph19.5 kmh 30.28 in1025.4 mb 0.00 in0.0 mm 0.00 in0.0 mm 0.00 in0.0 mm
03:50 AM 50.2°F10.1°C 36.4°F2.4°C 59% 5.8 mph NW9.3 kmh NW 12.1 mph19.5 kmh 30.28 in1025.4 mb 0.00 in0.0 mm 0.00 in0.0 mm 0.00 in0.0 mm
03:55 AM 50.0°F10.0°C 36.7°F2.6°C 60% 5.1 mph NW8.2 kmh NW 12.1 mph19.5 kmh 30.28 in1025.4 mb 0.00 in0.0 mm 0.00 in0.0 mm 0.00 in0.0 mm
04:00 AM 50.0°F10.0°C 36.2°F2.3°C 59% 5.6 mph WNW9.0 kmh WNW 13.0 mph20.9 kmh 30.28 in1025.4 mb 0.00 in0.0 mm 0.00 in0.0 mm 0.00 in0.0 mm
04:05 AM 49.8°F9.9°C 35.6°F2.0°C 58% 5.5 mph NW8.9 kmh NW 13.0 mph20.9 kmh 30.28 in1025.4 mb 0.00 in0.0 mm 0.00 in0.0 mm 0.00 in0.0 mm
04:10 AM 49.8°F9.9°C 35.6°F2.0°C 58% 4.5 mph NW7.2 kmh NW 14.5 mph23.3 kmh 30.28 in1025.4 mb 0.00 in0.0 mm 0.00 in0.0 mm 0.00 in0.0 mm
04:15 AM 49.8°F9.9°C 35.6°F2.0°C 58% 5.1 mph NW8.2 kmh NW 14.5 mph23.3 kmh 30.28 in1025.4 mb 0.00 in0.0 mm 0.00 in0.0 mm 0.00 in0.0 mm
04:20 AM 49.8°F9.9°C 36.1°F2.3°C 59% 4.9 mph NW7.9 kmh NW 9.8 mph15.8 kmh 30.28 in1025.4 mb 0.00 in0.0 mm 0.00 in0.0 mm 0.00 in0.0 mm
04:25 AM 49.8°F9.9°C 36.1°F2.3°C 59% 5.5 mph N8.9 kmh N 13.0 mph20.9 kmh 30.28 in1025.4 mb 0.00 in0.0 mm 0.00 in0.0 mm 0.00 in0.0 mm
04:30 AM 49.6°F9.8°C 35.9°F2.2°C 59% 5.6 mph N9.0 kmh N 13.0 mph20.9 kmh 30.28 in1025.4 mb 0.00 in0.0 mm 0.00 in0.0 mm 0.00 in0.0 mm
04:35 AM 49.3°F9.6°C 36.0°F2.2°C 60% 3.8 mph NW6.1 kmh NW 10.7 mph17.2 kmh 30.28 in1025.4 mb 0.00 in0.0 mm 0.00 in0.0 mm 0.00 in0.0 mm
04:40 AM 49.1°F9.5°C 35.8°F2.1°C 60% 2.7 mph NW4.3 kmh NW 10.7 mph17.2 kmh 30.29 in1025.7 mb 0.00 in0.0 mm 0.00 in0.0 mm 0.00 in0.0 mm
04:45 AM 49.5°F9.7°C 35.7°F2.1°C 59% 3.4 mph NW5.5 kmh NW 12.1 mph19.5 kmh 30.28 in1025.4 mb 0.00 in0.0 mm 0.00 in0.0 mm 0.00 in0.0 mm
04:50 AM 49.6°F9.8°C 35.9°F2.2°C 59% 4.5 mph NW7.2 kmh NW 12.1 mph19.5 kmh 30.29 in1025.7 mb 0.00 in0.0 mm 0.00 in0.0 mm 0.00 in0.0 mm
04:55 AM 49.5°F9.7°C 35.7°F2.1°C 59% 4.4 mph NW7.1 kmh NW 10.7 mph17.2 kmh 30.29 in1025.7 mb 0.00 in0.0 mm 0.00 in0.0 mm 0.00 in0.0 mm
05:00 AM 49.5°F9.7°C 36.2°F2.3°C 60% 3.7 mph NW6.0 kmh NW 9.8 mph15.8 kmh 30.29 in1025.7 mb 0.00 in0.0 mm 0.00 in0.0 mm 0.00 in0.0 mm
05:05 AM 49.3°F9.6°C 36.0°F2.2°C 60% 2.9 mph NW4.7 kmh NW 9.2 mph14.8 kmh 30.29 in1025.7 mb 0.00 in0.0 mm 0.00 in0.0 mm 0.00 in0.0 mm
05:10 AM 49.3°F9.6°C 36.0°F2.2°C 60% 2.9 mph NW4.7 kmh NW 9.2 mph14.8 kmh 30.29 in1025.7 mb 0.00 in0.0 mm 0.00 in0.0 mm 0.00 in0.0 mm
05:15 AM 49.5°F9.7°C 36.2°F2.3°C 60% 3.9 mph NW6.3 kmh NW 9.2 mph14.8 kmh 30.28 in1025.4 mb 0.00 in0.0 mm 0.00 in0.0 mm 0.00 in0.0 mm
05:20 AM 49.6°F9.8°C 35.5°F1.9°C 58% 4.0 mph NW6.4 kmh NW 9.2 mph14.8 kmh 30.28 in1025.4 mb 0.00 in0.0 mm 0.00 in0.0 mm 0.00 in0.0 mm
05:25 AM 50.2°F10.1°C 35.5°F1.9°C 57% 5.2 mph NW8.4 kmh NW 13.6 mph21.9 kmh 30.28 in1025.4 mb 0.00 in0.0 mm 0.00 in0.0 mm 0.00 in0.0 mm
05:30 AM 50.2°F10.1°C 35.5°F1.9°C 57% 6.4 mph NW10.3 kmh NW 13.6 mph21.9 kmh 30.28 in1025.4 mb 0.00 in0.0 mm 0.00 in0.0 mm 0.00 in0.0 mm
05:35 AM 50.0°F10.0°C 34.9°F1.6°C 56% 6.1 mph NNW9.8 kmh NNW 13.6 mph21.9 kmh 30.28 in1025.4 mb 0.00 in0.0 mm 0.00 in0.0 mm 0.00 in0.0 mm
05:40 AM 49.8°F9.9°C 34.8°F1.6°C 56% 6.5 mph NNW10.5 kmh NNW 15.9 mph25.6 kmh 30.28 in1025.4 mb 0.00 in0.0 mm 0.00 in0.0 mm 0.00 in0.0 mm
05:45 AM 49.8°F9.9°C 34.8°F1.6°C 56% 7.1 mph NNW11.4 kmh NNW 15.9 mph25.6 kmh 30.28 in1025.4 mb 0.00 in0.0 mm 0.00 in0.0 mm 0.00 in0.0 mm
05:50 AM 50.0°F10.0°C 35.4°F1.9°C 57% 8.5 mph NNW13.7 kmh NNW 16.8 mph27.0 kmh 30.28 in1025.4 mb 0.00 in0.0 mm 0.00 in0.0 mm 0.00 in0.0 mm
05:55 AM 50.0°F10.0°C 35.4°F1.9°C 57% 8.7 mph NW14.0 kmh NW 16.8 mph27.0 kmh 30.28 in1025.4 mb 0.00 in0.0 mm 0.00 in0.0 mm 0.00 in0.0 mm
06:00 AM 50.0°F10.0°C 34.9°F1.6°C 56% 7.5 mph NNW12.1 kmh NNW 16.8 mph27.0 kmh 30.28 in1025.4 mb 0.00 in0.0 mm 0.00 in0.0 mm 0.00 in0.0 mm
06:05 AM 50.2°F10.1°C 35.5°F1.9°C 57% 6.9 mph NNW11.1 kmh NNW 16.8 mph27.0 kmh 30.29 in1025.7 mb 0.00 in0.0 mm 0.00 in0.0 mm 0.00 in0.0 mm
06:10 AM 50.0°F10.0°C 35.4°F1.9°C 57% 7.0 mph NW11.3 kmh NW 19.7 mph31.7 kmh 30.28 in1025.4 mb 0.00 in0.0 mm 0.00 in0.0 mm 0.00 in0.0 mm
06:15 AM 50.0°F10.0°C 34.9°F1.6°C 56% 8.2 mph NW13.2 kmh NW 19.7 mph31.7 kmh 30.28 in1025.4 mb 0.00 in0.0 mm 0.00 in0.0 mm 0.00 in0.0 mm
06:20 AM 49.6°F9.8°C 34.6°F1.4°C 56% 7.9 mph NNW12.7 kmh NNW 17.4 mph28.0 kmh 30.28 in1025.4 mb 0.00 in0.0 mm 0.00 in0.0 mm 0.00 in0.0 mm
06:25 AM 49.5°F9.7°C 34.9°F1.6°C 57% 6.0 mph NNW9.7 kmh NNW 15.2 mph24.5 kmh 30.29 in1025.7 mb 0.00 in0.0 mm 0.00 in0.0 mm 0.00 in0.0 mm
06:30 AM 49.5°F9.7°C 34.9°F1.6°C 57% 4.6 mph N7.4 kmh N 13.0 mph20.9 kmh 30.29 in1025.7 mb 0.00 in0.0 mm 0.00 in0.0 mm 0.00 in0.0 mm
06:35 AM 49.5°F9.7°C 35.3°F1.8°C 58% 4.1 mph NNW6.6 kmh NNW 9.8 mph15.8 kmh 30.29 in1025.7 mb 0.00 in0.0 mm 0.00 in0.0 mm 0.00 in0.0 mm
06:40 AM 49.6°F9.8°C 35.5°F1.9°C 58% 4.3 mph NW6.9 kmh NW 9.8 mph15.8 kmh 30.29 in1025.7 mb 0.00 in0.0 mm 0.00 in0.0 mm 0.00 in0.0 mm
06:45 AM 49.6°F9.8°C 35.0°F1.7°C 57% 5.0 mph NNW8.0 kmh NNW 14.5 mph23.3 kmh 30.29 in1025.7 mb 0.00 in0.0 mm 0.00 in0.0 mm 0.00 in0.0 mm
06:50 AM 49.6°F9.8°C 34.6°F1.4°C 56% 6.5 mph NNW10.5 kmh NNW 14.5 mph23.3 kmh 30.29 in1025.7 mb 0.00 in0.0 mm 0.00 in0.0 mm 0.00 in0.0 mm
06:55 AM 49.5°F9.7°C 34.4°F1.3°C 56% 6.8 mph NW10.9 kmh NW 14.5 mph23.3 kmh 30.30 in1026.1 mb 0.00 in0.0 mm 0.00 in0.0 mm 0.00 in0.0 mm
07:00 AM 49.5°F9.7°C 34.4°F1.3°C 56% 5.5 mph NNW8.9 kmh NNW 13.6 mph21.9 kmh 30.31 in1026.4 mb 0.00 in0.0 mm 0.00 in0.0 mm 0.00 in0.0 mm
07:05 AM 49.1°F9.5°C 34.5°F1.4°C 57% 4.3 mph NNW6.9 kmh NNW 13.0 mph20.9 kmh 30.30 in1026.1 mb 0.00 in0.0 mm 0.00 in0.0 mm 0.00 in0.0 mm
07:10 AM 48.9°F9.4°C 34.4°F1.3°C 57% 4.0 mph NW6.4 kmh NW 11.4 mph18.3 kmh 30.30 in1026.1 mb 0.00 in0.0 mm 0.00 in0.0 mm 0.00 in0.0 mm
07:15 AM 48.9°F9.4°C 34.8°F1.6°C 58% 3.4 mph NW5.5 kmh NW 9.8 mph15.8 kmh 30.30 in1026.1 mb 0.00 in0.0 mm 0.00 in0.0 mm 0.00 in0.0 mm
07:20 AM 48.7°F9.3°C 34.6°F1.4°C 58% 3.8 mph NNW6.1 kmh NNW 10.7 mph17.2 kmh 30.30 in1026.1 mb 0.00 in0.0 mm 0.00 in0.0 mm 0.00 in0.0 mm
07:25 AM 48.7°F9.3°C 34.6°F1.4°C 58% 5.0 mph N8.0 kmh N 10.7 mph17.2 kmh 30.30 in1026.1 mb 0.00 in0.0 mm 0.00 in0.0 mm 0.00 in0.0 mm
07:30 AM 48.9°F9.4°C 34.8°F1.6°C 58% 5.9 mph NNW9.5 kmh NNW 15.2 mph24.5 kmh 30.30 in1026.1 mb 0.00 in0.0 mm 0.00 in0.0 mm 0.00 in0.0 mm
07:35 AM 48.7°F9.3°C 34.6°F1.4°C 58% 5.7 mph NNW9.2 kmh NNW 15.2 mph24.5 kmh 30.30 in1026.1 mb 0.00 in0.0 mm 0.00 in0.0 mm 0.00 in0.0 mm
07:40 AM 48.6°F9.2°C 34.5°F1.4°C 58% 4.8 mph NNW7.7 kmh NNW 13.0 mph20.9 kmh 30.30 in1026.1 mb 0.00 in0.0 mm 0.00 in0.0 mm 0.00 in0.0 mm
07:45 AM 48.9°F9.4°C 34.4°F1.3°C 57% 5.4 mph NNW8.7 kmh NNW 13.6 mph21.9 kmh 30.30 in1026.1 mb 0.00 in0.0 mm 0.00 in0.0 mm 0.00 in0.0 mm
07:50 AM 49.1°F9.5°C 34.5°F1.4°C 57% 6.0 mph N9.7 kmh N 13.6 mph21.9 kmh 30.31 in1026.4 mb 0.00 in0.0 mm 0.00 in0.0 mm 0.00 in0.0 mm
07:55 AM 48.9°F9.4°C 33.9°F1.1°C 56% 6.3 mph NNW10.1 kmh NNW 13.0 mph20.9 kmh 30.31 in1026.4 mb 0.00 in0.0 mm 0.00 in0.0 mm 0.00 in0.0 mm
08:00 AM 48.9°F9.4°C 34.4°F1.3°C 57% 5.7 mph N9.2 kmh N 13.0 mph20.9 kmh 30.31 in1026.4 mb 0.00 in0.0 mm 0.00 in0.0 mm 0.00 in0.0 mm
08:05 AM 48.7°F9.3°C 34.6°F1.4°C 58% 5.2 mph N8.4 kmh N 11.4 mph18.3 kmh 30.31 in1026.4 mb 0.00 in0.0 mm 0.00 in0.0 mm 0.00 in0.0 mm
08:10 AM 48.7°F9.3°C 34.6°F1.4°C 58% 4.6 mph N7.4 kmh N 11.4 mph18.3 kmh 30.30 in1026.1 mb 0.00 in0.0 mm 0.00 in0.0 mm 0.00 in0.0 mm
08:15 AM 48.6°F9.2°C 34.0°F1.1°C 57% 3.6 mph N5.8 kmh N 10.7 mph17.2 kmh 30.30 in1026.1 mb 0.00 in0.0 mm 0.00 in0.0 mm 0.00 in0.0 mm
08:20 AM 48.7°F9.3°C 33.8°F1.0°C 56% 4.6 mph NNW7.4 kmh NNW 14.5 mph23.3 kmh 30.30 in1026.1 mb 0.00 in0.0 mm 0.00 in0.0 mm 0.00 in0.0 mm
08:25 AM 48.9°F9.4°C 33.9°F1.1°C 56% 6.0 mph NNW9.7 kmh NNW 14.5 mph23.3 kmh 30.31 in1026.4 mb 0.00 in0.0 mm 0.00 in0.0 mm 0.00 in0.0 mm
08:30 AM 49.1°F9.5°C 34.5°F1.4°C 57% 6.2 mph NNW10.0 kmh NNW 13.6 mph21.9 kmh 30.31 in1026.4 mb 0.00 in0.0 mm 0.00 in0.0 mm 0.00 in0.0 mm
08:35 AM 49.1°F9.5°C 34.5°F1.4°C 57% 5.5 mph NW8.9 kmh NW 13.6 mph21.9 kmh 30.31 in1026.4 mb 0.00 in0.0 mm 0.00 in0.0 mm 0.00 in0.0 mm
08:40 AM 49.3°F9.6°C 34.7°F1.5°C 57% 5.0 mph NNW8.0 kmh NNW 13.6 mph21.9 kmh 30.31 in1026.4 mb 0.00 in0.0 mm 0.00 in0.0 mm 0.00 in0.0 mm
08:45 AM 49.3°F9.6°C 34.3°F1.3°C 56% 5.4 mph N8.7 kmh N 15.9 mph25.6 kmh 30.31 in1026.4 mb 0.00 in0.0 mm 0.00 in0.0 mm 0.00 in0.0 mm
08:50 AM 49.5°F9.7°C 34.9°F1.6°C 57% 5.9 mph NNW9.5 kmh NNW 16.8 mph27.0 kmh 30.31 in1026.4 mb 0.00 in0.0 mm 0.00 in0.0 mm 0.00 in0.0 mm
08:55 AM 49.6°F9.8°C 34.6°F1.4°C 56% 6.0 mph NNW9.7 kmh NNW 16.8 mph27.0 kmh 30.31 in1026.4 mb 0.00 in0.0 mm 0.00 in0.0 mm 0.00 in0.0 mm
09:00 AM 50.2°F10.1°C 34.6°F1.4°C 55% 7.0 mph NNW11.3 kmh NNW 19.0 mph30.6 kmh 30.31 in1026.4 mb 0.00 in0.0 mm 0.00 in0.0 mm 0.00 in0.0 mm
09:05 AM 50.5°F10.3°C 34.1°F1.2°C 53% 8.8 mph NNW14.2 kmh NNW 19.0 mph30.6 kmh 30.32 in1026.8 mb 0.00 in0.0 mm 0.00 in0.0 mm 0.00 in0.0 mm
09:10 AM 50.5°F10.3°C 34.5°F1.4°C 54% 8.4 mph NNW13.5 kmh NNW 19.0 mph30.6 kmh 30.31 in1026.4 mb 0.00 in0.0 mm 0.00 in0.0 mm 0.00 in0.0 mm
09:15 AM 50.4°F10.2°C 34.8°F1.6°C 55% 6.1 mph NNW9.8 kmh NNW 19.0 mph30.6 kmh 30.32 in1026.8 mb 0.00 in0.0 mm 0.00 in0.0 mm 0.00 in0.0 mm
09:20 AM 50.5°F10.3°C 34.1°F1.2°C 53% 6.6 mph NNW10.6 kmh NNW 20.6 mph33.2 kmh 30.32 in1026.8 mb 0.00 in0.0 mm 0.00 in0.0 mm 0.00 in0.0 mm
09:25 AM 50.4°F10.2°C 33.9°F1.1°C 53% 9.0 mph NNW14.5 kmh NNW 22.8 mph36.7 kmh 30.32 in1026.8 mb 0.00 in0.0 mm 0.00 in0.0 mm 0.00 in0.0 mm
09:30 AM 50.4°F10.2°C 34.4°F1.3°C 54% 10.2 mph N16.4 kmh N 22.8 mph36.7 kmh 30.32 in1026.8 mb 0.00 in0.0 mm 0.00 in0.0 mm 0.00 in0.0 mm
09:35 AM 50.4°F10.2°C 34.8°F1.6°C 55% 10.9 mph NNW17.5 kmh NNW 22.8 mph36.7 kmh 30.32 in1026.8 mb 0.00 in0.0 mm 0.00 in0.0 mm 0.00 in0.0 mm
09:40 AM 50.2°F10.1°C 34.6°F1.4°C 55% 9.3 mph NW15.0 kmh NW 19.7 mph31.7 kmh 30.32 in1026.8 mb 0.00 in0.0 mm 0.00 in0.0 mm 0.00 in0.0 mm
09:45 AM 50.5°F10.3°C 34.5°F1.4°C 54% 8.1 mph N13.0 kmh N 19.7 mph31.7 kmh 30.32 in1026.8 mb 0.00 in0.0 mm 0.00 in0.0 mm 0.00 in0.0 mm
09:50 AM 51.3°F10.7°C 34.2°F1.2°C 52% 6.6 mph NW10.6 kmh NW 15.9 mph25.6 kmh 30.32 in1026.8 mb 0.00 in0.0 mm 0.00 in0.0 mm 0.00 in0.0 mm
09:55 AM 51.6°F10.9°C 34.1°F1.2°C 51% 5.6 mph NW9.0 kmh NW 13.0 mph20.9 kmh 30.32 in1026.8 mb 0.00 in0.0 mm 0.00 in0.0 mm 0.00 in0.0 mm
10:00 AM 51.8°F11.0°C 34.3°F1.3°C 51% 6.6 mph NW10.6 kmh NW 15.2 mph24.5 kmh 30.32 in1026.8 mb 0.00 in0.0 mm 0.00 in0.0 mm 0.00 in0.0 mm
10:05 AM 51.3°F10.7°C 33.8°F1.0°C 51% 6.3 mph NNW10.1 kmh NNW 15.2 mph24.5 kmh 30.32 in1026.8 mb 0.00 in0.0 mm 0.00 in0.0 mm 0.00 in0.0 mm
10:10 AM 51.3°F10.7°C 33.8°F1.0°C 51% 6.3 mph NW10.1 kmh NW 15.9 mph25.6 kmh 30.32 in1026.8 mb 0.00 in0.0 mm 0.00 in0.0 mm 0.00 in0.0 mm
10:15 AM 51.3°F10.7°C 33.8°F1.0°C 51% 6.9 mph NW11.1 kmh NW 15.9 mph25.6 kmh 30.32 in1026.8 mb 0.00 in0.0 mm 0.00 in0.0 mm 0.00 in0.0 mm
10:20 AM 51.3°F10.7°C 33.8°F1.0°C 51% 7.8 mph NNW12.6 kmh NNW 15.9 mph25.6 kmh 30.32 in1026.8 mb 0.00 in0.0 mm 0.00 in0.0 mm 0.00 in0.0 mm
10:25 AM 51.1°F10.6°C 33.6°F0.9°C 51% 8.1 mph NNW13.0 kmh NNW 15.9 mph25.6 kmh 30.33 in1027.1 mb 0.00 in0.0 mm 0.00 in0.0 mm 0.00 in0.0 mm
10:30 AM 51.1°F10.6°C 34.1°F1.2°C 52% 7.8 mph NNW12.6 kmh NNW 15.9 mph25.6 kmh 30.33 in1027.1 mb 0.00 in0.0 mm 0.00 in0.0 mm 0.00 in0.0 mm
10:35 AM 50.9°F10.5°C 33.4°F0.8°C 51% 8.5 mph N13.7 kmh N 16.8 mph27.0 kmh 30.33 in1027.1 mb 0.00 in0.0 mm 0.00 in0.0 mm 0.00 in0.0 mm
10:40 AM 51.1°F10.6°C 34.1°F1.2°C 52% 8.0 mph NNE12.9 kmh NNE 16.8 mph27.0 kmh 30.33 in1027.1 mb 0.00 in0.0 mm 0.00 in0.0 mm 0.00 in0.0 mm
10:45 AM 51.8°F11.0°C 33.8°F1.0°C 50% 7.2 mph NE11.6 kmh NE 15.9 mph25.6 kmh 30.32 in1026.8 mb 0.00 in0.0 mm 0.00 in0.0 mm 0.00 in0.0 mm
10:50 AM 52.2°F11.2°C 32.0°F0.0°C 46% 7.8 mph NNE12.6 kmh NNE 19.7 mph31.7 kmh 30.33 in1027.1 mb 0.00 in0.0 mm 0.00 in0.0 mm 0.00 in0.0 mm
10:55 AM 52.5°F11.4°C 33.9°F1.1°C 49% 7.8 mph N12.6 kmh N 19.7 mph31.7 kmh 30.33 in1027.1 mb 0.00 in0.0 mm 0.00 in0.0 mm 0.00 in0.0 mm
11:00 AM 52.3°F11.3°C 32.2°F0.1°C 46% 9.2 mph NW14.8 kmh NW 19.0 mph30.6 kmh 30.32 in1026.8 mb 0.00 in0.0 mm 0.00 in0.0 mm 0.00 in0.0 mm
11:05 AM 51.6°F10.9°C 32.1°F0.1°C 47% 9.9 mph NW15.9 kmh NW 19.0 mph30.6 kmh 30.32 in1026.8 mb 0.00 in0.0 mm 0.00 in0.0 mm 0.00 in0.0 mm
11:10 AM 51.8°F11.0°C 33.3°F0.7°C 49% 7.6 mph N12.2 kmh N 16.8 mph27.0 kmh 30.33 in1027.1 mb 0.00 in0.0 mm 0.00 in0.0 mm 0.00 in0.0 mm
11:15 AM 52.0°F11.1°C 33.4°F0.8°C 49% 6.7 mph NNW10.8 kmh NNW 16.8 mph27.0 kmh 30.33 in1027.1 mb 0.00 in0.0 mm 0.00 in0.0 mm 0.00 in0.0 mm
11:20 AM 52.2°F11.2°C 33.6°F0.9°C 49% 7.8 mph NNW12.6 kmh NNW 15.9 mph25.6 kmh 30.33 in1027.1 mb 0.00 in0.0 mm 0.00 in0.0 mm 0.00 in0.0 mm
11:25 AM 52.2°F11.2°C 34.1°F1.2°C 50% 7.9 mph NNW12.7 kmh NNW 15.9 mph25.6 kmh 30.33 in1027.1 mb 0.00 in0.0 mm 0.00 in0.0 mm 0.00 in0.0 mm
11:30 AM 51.8°F11.0°C 33.8°F1.0°C 50% 8.7 mph NNW14.0 kmh NNW 21.3 mph34.3 kmh 30.33 in1027.1 mb 0.00 in0.0 mm 0.00 in0.0 mm 0.00 in0.0 mm
11:35 AM 51.4°F10.8°C 32.9°F0.5°C 49% 9.3 mph NNW15.0 kmh NNW 21.3 mph34.3 kmh 30.32 in1026.8 mb 0.00 in0.0 mm 0.00 in0.0 mm 0.00 in0.0 mm
11:40 AM 51.3°F10.7°C 32.3°F0.2°C 48% 9.7 mph N15.6 kmh N 26.6 mph42.8 kmh 30.32 in1026.8 mb 0.00 in0.0 mm 0.00 in0.0 mm 0.00 in0.0 mm
11:45 AM 51.3°F10.7°C 32.8°F0.4°C 49% 9.5 mph N15.3 kmh N 26.6 mph42.8 kmh 30.32 in1026.8 mb 0.00 in0.0 mm 0.00 in0.0 mm 0.00 in0.0 mm
11:50 AM 51.4°F10.8°C 32.9°F0.5°C 49% 7.9 mph N12.7 kmh N 16.8 mph27.0 kmh 30.32 in1026.8 mb 0.00 in0.0 mm 0.00 in0.0 mm 0.00 in0.0 mm
11:55 AM 52.5°F11.4°C 32.3°F0.2°C 46% 8.0 mph N12.9 kmh N 21.3 mph34.3 kmh 30.32 in1026.8 mb 0.00 in0.0 mm 0.00 in0.0 mm 0.00 in0.0 mm
12:00 PM 52.3°F11.3°C 31.6°F-0.2°C 45% 9.7 mph NW15.6 kmh NW 22.1 mph35.6 kmh 30.32 in1026.8 mb 0.00 in0.0 mm 0.00 in0.0 mm 0.00 in0.0 mm
12:05 PM 51.4°F10.8°C 31.4°F-0.3°C 46% 11.4 mph NW18.3 kmh NW 22.1 mph35.6 kmh 30.32 in1026.8 mb 0.00 in0.0 mm 0.00 in0.0 mm 0.00 in0.0 mm
12:10 PM 51.8°F11.0°C 32.2°F0.1°C 47% 10.3 mph N16.6 kmh N 21.3 mph34.3 kmh 30.32 in1026.8 mb 0.00 in0.0 mm 0.00 in0.0 mm 0.00 in0.0 mm
12:15 PM 52.0°F11.1°C 32.9°F0.5°C 48% 9.5 mph N15.3 kmh N 18.3 mph29.5 kmh 30.32 in1026.8 mb 0.00 in0.0 mm 0.00 in0.0 mm 0.00 in0.0 mm
12:20 PM 52.5°F11.4°C 33.9°F1.1°C 49% 10.2 mph NNW16.4 kmh NNW 19.0 mph30.6 kmh 30.31 in1026.4 mb 0.00 in0.0 mm 0.00 in0.0 mm 0.00 in0.0 mm
12:25 PM 52.7°F11.5°C 33.6°F0.9°C 48% 10.0 mph N16.1 kmh N 19.0 mph30.6 kmh 30.31 in1026.4 mb 0.00 in0.0 mm 0.00 in0.0 mm 0.00 in0.0 mm
12:30 PM 52.3°F11.3°C 32.7°F0.4°C 47% 9.4 mph N15.1 kmh N 19.7 mph31.7 kmh 30.31 in1026.4 mb 0.00 in0.0 mm 0.00 in0.0 mm 0.00 in0.0 mm
12:35 PM 52.2°F11.2°C 32.6°F0.3°C 47% 8.2 mph N13.2 kmh N 19.7 mph31.7 kmh 30.31 in1026.4 mb 0.00 in0.0 mm 0.00 in0.0 mm 0.00 in0.0 mm
12:40 PM 52.3°F11.3°C 32.2°F0.1°C 46% 8.1 mph NNW13.0 kmh NNW 19.7 mph31.7 kmh 30.31 in1026.4 mb 0.00 in0.0 mm 0.00 in0.0 mm 0.00 in0.0 mm
12:45 PM 52.9°F11.6°C 31.6°F-0.2°C 44% 8.5 mph NNW13.7 kmh NNW 19.7 mph31.7 kmh 30.31 in1026.4 mb 0.00 in0.0 mm 0.00 in0.0 mm 0.00 in0.0 mm
12:50 PM 53.1°F11.7°C 31.7°F-0.2°C 44% 8.9 mph NW14.3 kmh NW 22.1 mph35.6 kmh 30.31 in1026.4 mb 0.00 in0.0 mm 0.00 in0.0 mm 0.00 in0.0 mm
12:55 PM 53.1°F11.7°C 30.6°F-0.8°C 42% 9.3 mph NNW15.0 kmh NNW 22.1 mph35.6 kmh 30.31 in1026.4 mb 0.00 in0.0 mm 0.00 in0.0 mm 0.00 in0.0 mm
01:00 PM 52.9°F11.6°C 31.6°F-0.2°C 44% 9.3 mph NNW15.0 kmh NNW 21.3 mph34.3 kmh 30.31 in1026.4 mb 0.00 in0.0 mm 0.00 in0.0 mm 0.00 in0.0 mm
01:05 PM 53.1°F11.7°C 30.6°F-0.8°C 42% 9.4 mph NW15.1 kmh NW 21.3 mph34.3 kmh 30.31 in1026.4 mb 0.00 in0.0 mm 0.00 in0.0 mm 0.00 in0.0 mm
01:10 PM 53.2°F11.8°C 30.8°F-0.7°C 42% 8.5 mph N13.7 kmh N 19.0 mph30.6 kmh 30.30 in1026.1 mb 0.00 in0.0 mm 0.00 in0.0 mm 0.00 in0.0 mm
01:15 PM 53.6°F12.0°C 31.7°F-0.2°C 43% 7.9 mph N12.7 kmh N 17.4 mph28.0 kmh 30.30 in1026.1 mb 0.00 in0.0 mm 0.00 in0.0 mm 0.00 in0.0 mm
01:20 PM 53.6°F12.0°C 31.1°F-0.5°C 42% 7.1 mph N11.4 kmh N 15.2 mph24.5 kmh 30.30 in1026.1 mb 0.00 in0.0 mm 0.00 in0.0 mm 0.00 in0.0 mm
01:25 PM 53.8°F12.1°C 31.2°F-0.4°C 42% 6.4 mph NNW10.3 kmh NNW 15.2 mph24.5 kmh 30.30 in1026.1 mb 0.00 in0.0 mm 0.00 in0.0 mm 0.00 in0.0 mm
01:30 PM 53.6°F12.0°C 29.3°F-1.5°C 39% 6.7 mph NW10.8 kmh NW 16.8 mph27.0 kmh 30.30 in1026.1 mb 0.00 in0.0 mm 0.00 in0.0 mm 0.00 in0.0 mm
01:35 PM 53.4°F11.9°C 30.9°F-0.6°C 42% 8.0 mph NNW12.9 kmh NNW 16.8 mph27.0 kmh 30.30 in1026.1 mb 0.00 in0.0 mm 0.00 in0.0 mm 0.00 in0.0 mm
01:40 PM 53.2°F11.8°C 30.8°F-0.7°C 42% 10.6 mph N17.1 kmh N 25.1 mph40.4 kmh 30.30 in1026.1 mb 0.00 in0.0 mm 0.00 in0.0 mm 0.00 in0.0 mm
01:45 PM 52.7°F11.5°C 30.8°F-0.7°C 43% 11.7 mph NNE18.8 kmh NNE 25.1 mph40.4 kmh 30.30 in1026.1 mb 0.00 in0.0 mm 0.00 in0.0 mm 0.00 in0.0 mm
01:50 PM 52.5°F11.4°C 32.3°F0.2°C 46% 10.6 mph N17.1 kmh N 25.1 mph40.4 kmh 30.30 in1026.1 mb 0.00 in0.0 mm 0.00 in0.0 mm 0.00 in0.0 mm
01:55 PM 52.7°F11.5°C 32.5°F0.3°C 46% 9.8 mph N15.8 kmh N 25.1 mph40.4 kmh 30.29 in1025.7 mb 0.00 in0.0 mm 0.00 in0.0 mm 0.00 in0.0 mm
02:00 PM 52.9°F11.6°C 33.2°F0.7°C 47% 9.1 mph NNE14.6 kmh NNE 20.6 mph33.2 kmh 30.29 in1025.7 mb 0.00 in0.0 mm 0.00 in0.0 mm 0.00 in0.0 mm
02:05 PM 52.7°F11.5°C 33.6°F0.9°C 48% 9.2 mph N14.8 kmh N 20.6 mph33.2 kmh 30.29 in1025.7 mb 0.00 in0.0 mm 0.00 in0.0 mm 0.00 in0.0 mm
02:10 PM 53.1°F11.7°C 32.8°F0.4°C 46% 9.3 mph N15.0 kmh N 20.6 mph33.2 kmh 30.29 in1025.7 mb 0.00 in0.0 mm 0.00 in0.0 mm 0.00 in0.0 mm
02:15 PM 52.7°F11.5°C 32.5°F0.3°C 46% 8.1 mph N13.0 kmh N 17.4 mph28.0 kmh 30.29 in1025.7 mb 0.00 in0.0 mm 0.00 in0.0 mm 0.00 in0.0 mm
02:20 PM 52.2°F11.2°C 33.1°F0.6°C 48% 8.6 mph N13.8 kmh N 19.7 mph31.7 kmh 30.29 in1025.7 mb 0.00 in0.0 mm 0.00 in0.0 mm 0.00 in0.0 mm
02:25 PM 51.8°F11.0°C 33.8°F1.0°C 50% 9.3 mph N15.0 kmh N 19.7 mph31.7 kmh 30.29 in1025.7 mb 0.00 in0.0 mm 0.00 in0.0 mm 0.00 in0.0 mm
02:30 PM 51.4°F10.8°C 33.9°F1.1°C 51% 9.5 mph NNW15.3 kmh NNW 20.6 mph33.2 kmh 30.30 in1026.1 mb 0.00 in0.0 mm 0.00 in0.0 mm 0.00 in0.0 mm
02:35 PM 51.4°F10.8°C 33.9°F1.1°C 51% 8.2 mph NNW13.2 kmh NNW 20.6 mph33.2 kmh 30.30 in1026.1 mb 0.00 in0.0 mm 0.00 in0.0 mm 0.00 in0.0 mm
02:40 PM 51.6°F10.9°C 34.1°F1.2°C 51% 6.3 mph N10.1 kmh N 16.8 mph27.0 kmh 30.30 in1026.1 mb 0.00 in0.0 mm 0.00 in0.0 mm 0.00 in0.0 mm
02:45 PM 51.4°F10.8°C 33.4°F0.8°C 50% 6.5 mph N10.5 kmh N 16.8 mph27.0 kmh 30.29 in1025.7 mb 0.00 in0.0 mm 0.00 in0.0 mm 0.00 in0.0 mm
02:50 PM 51.4°F10.8°C 33.4°F0.8°C 50% 6.8 mph N10.9 kmh N 16.8 mph27.0 kmh 30.29 in1025.7 mb 0.00 in0.0 mm 0.00 in0.0 mm 0.00 in0.0 mm
02:55 PM 51.4°F10.8°C 33.4°F0.8°C 50% 8.2 mph NNW13.2 kmh NNW 17.4 mph28.0 kmh 30.29 in1025.7 mb 0.00 in0.0 mm 0.00 in0.0 mm 0.00 in0.0 mm
03:00 PM 51.3°F10.7°C 33.8°F1.0°C 51% 9.2 mph NNW14.8 kmh NNW 17.4 mph28.0 kmh 30.29 in1025.7 mb 0.00 in0.0 mm 0.00 in0.0 mm 0.00 in0.0 mm
03:05 PM 50.9°F10.5°C 32.4°F0.2°C 49% 9.3 mph N15.0 kmh N 20.6 mph33.2 kmh 30.29 in1025.7 mb 0.00 in0.0 mm 0.00 in0.0 mm 0.00 in0.0 mm
03:10 PM 50.7°F10.4°C 33.3°F0.7°C 51% 9.3 mph NNW15.0 kmh NNW 20.6 mph33.2 kmh 30.29 in1025.7 mb 0.00 in0.0 mm 0.00 in0.0 mm 0.00 in0.0 mm
03:15 PM 50.5°F10.3°C 32.6°F0.3°C 50% 9.0 mph NNW14.5 kmh NNW 21.3 mph34.3 kmh 30.29 in1025.7 mb 0.00 in0.0 mm 0.00 in0.0 mm 0.00 in0.0 mm
03:20 PM 50.4°F10.2°C 32.9°F0.5°C 51% 7.7 mph NNW12.4 kmh NNW 21.3 mph34.3 kmh 30.29 in1025.7 mb 0.00 in0.0 mm 0.00 in0.0 mm 0.00 in0.0 mm
03:25 PM 50.7°F10.4°C 32.8°F0.4°C 50% 6.5 mph N10.5 kmh N 16.8 mph27.0 kmh 30.29 in1025.7 mb 0.00 in0.0 mm 0.00 in0.0 mm 0.00 in0.0 mm
03:30 PM 51.1°F10.6°C 32.1°F0.1°C 48% 7.3 mph N11.7 kmh N 15.9 mph25.6 kmh 30.29 in1025.7 mb 0.00 in0.0 mm 0.00 in0.0 mm 0.00 in0.0 mm
03:35 PM 50.9°F10.5°C 31.4°F-0.3°C 47% 8.4 mph NNW13.5 kmh NNW 18.3 mph29.5 kmh 30.29 in1025.7 mb 0.00 in0.0 mm 0.00 in0.0 mm 0.00 in0.0 mm
03:40 PM 50.9°F10.5°C 31.9°F-0.1°C 48% 9.3 mph N15.0 kmh N 19.0 mph30.6 kmh 30.29 in1025.7 mb 0.00 in0.0 mm 0.00 in0.0 mm 0.00 in0.0 mm
03:45 PM 50.7°F10.4°C 32.8°F0.4°C 50% 9.6 mph N15.4 kmh N 19.0 mph30.6 kmh 30.29 in1025.7 mb 0.00 in0.0 mm 0.00 in0.0 mm 0.00 in0.0 mm
03:50 PM 50.5°F10.3°C 33.1°F0.6°C 51% 9.2 mph N14.8 kmh N 19.0 mph30.6 kmh 30.29 in1025.7 mb 0.00 in0.0 mm 0.00 in0.0 mm 0.00 in0.0 mm
03:55 PM 50.5°F10.3°C 33.1°F0.6°C 51% 8.0 mph NNW12.9 kmh NNW 17.4 mph28.0 kmh 30.29 in1025.7 mb 0.00 in0.0 mm 0.00 in0.0 mm 0.00 in0.0 mm
04:00 PM 50.4°F10.2°C 33.9°F1.1°C 53% 6.8 mph N10.9 kmh N 17.4 mph28.0 kmh 30.29 in1025.7 mb 0.00 in0.0 mm 0.00 in0.0 mm 0.00 in0.0 mm
04:05 PM 50.2°F10.1°C 33.7°F0.9°C 53% 7.3 mph N11.7 kmh N 16.8 mph27.0 kmh 30.30 in1026.1 mb 0.00 in0.0 mm 0.00 in0.0 mm 0.00 in0.0 mm
04:10 PM 50.0°F10.0°C 34.0°F1.1°C 54% 7.4 mph N11.9 kmh N 18.3 mph29.5 kmh 30.30 in1026.1 mb 0.00 in0.0 mm 0.00 in0.0 mm 0.00 in0.0 mm
04:15 PM 50.0°F10.0°C 33.6°F0.9°C 53% 7.4 mph N11.9 kmh N 18.3 mph29.5 kmh 30.30 in1026.1 mb 0.00 in0.0 mm 0.00 in0.0 mm 0.00 in0.0 mm
04:20 PM 49.8°F9.9°C 33.4°F0.8°C 53% 7.7 mph N12.4 kmh N 15.9 mph25.6 kmh 30.30 in1026.1 mb 0.00 in0.0 mm 0.00 in0.0 mm 0.00 in0.0 mm
04:25 PM 49.6°F9.8°C 34.1°F1.2°C 55% 6.6 mph N10.6 kmh N 13.6 mph21.9 kmh 30.30 in1026.1 mb 0.00 in0.0 mm 0.00 in0.0 mm 0.00 in0.0 mm
04:30 PM 49.6°F9.8°C 33.7°F0.9°C 54% 5.9 mph NNE9.5 kmh NNE 13.0 mph20.9 kmh 30.30 in1026.1 mb 0.00 in0.0 mm 0.00 in0.0 mm 0.00 in0.0 mm
04:35 PM 49.6°F9.8°C 34.1°F1.2°C 55% 6.1 mph NNE9.8 kmh NNE 14.5 mph23.3 kmh 30.30 in1026.1 mb 0.00 in0.0 mm 0.00 in0.0 mm 0.00 in0.0 mm
04:40 PM 49.5°F9.7°C 34.0°F1.1°C 55% 5.8 mph NE9.3 kmh NE 14.5 mph23.3 kmh 30.30 in1026.1 mb 0.00 in0.0 mm 0.00 in0.0 mm 0.00 in0.0 mm
04:45 PM 49.5°F9.7°C 33.1°F0.6°C 53% 5.6 mph N9.0 kmh N 12.1 mph19.5 kmh 30.30 in1026.1 mb 0.00 in0.0 mm 0.00 in0.0 mm 0.00 in0.0 mm
04:50 PM 49.3°F9.6°C 32.4°F0.2°C 52% 6.3 mph NNW10.1 kmh NNW 17.4 mph28.0 kmh 30.30 in1026.1 mb 0.00 in0.0 mm 0.00 in0.0 mm 0.00 in0.0 mm
04:55 PM 49.3°F9.6°C 32.9°F0.5°C 53% 5.9 mph N9.5 kmh N 17.4 mph28.0 kmh 30.30 in1026.1 mb 0.00 in0.0 mm 0.00 in0.0 mm 0.00 in0.0 mm
05:00 PM 49.1°F9.5°C 33.2°F0.7°C 54% 4.7 mph NNW7.6 kmh NNW 12.1 mph19.5 kmh 30.30 in1026.1 mb 0.00 in0.0 mm 0.00 in0.0 mm 0.00 in0.0 mm
05:05 PM 49.1°F9.5°C 32.7°F0.4°C 53% 4.7 mph NW7.6 kmh NW 11.4 mph18.3 kmh 30.31 in1026.4 mb 0.00 in0.0 mm 0.00 in0.0 mm 0.00 in0.0 mm
05:10 PM 49.1°F9.5°C 32.7°F0.4°C 53% 5.8 mph NNW9.3 kmh NNW 13.6 mph21.9 kmh 30.31 in1026.4 mb 0.00 in0.0 mm 0.00 in0.0 mm 0.00 in0.0 mm
05:15 PM 49.1°F9.5°C 32.7°F0.4°C 53% 5.9 mph NNW9.5 kmh NNW 13.6 mph21.9 kmh 30.31 in1026.4 mb 0.00 in0.0 mm 0.00 in0.0 mm 0.00 in0.0 mm
05:20 PM 49.1°F9.5°C 32.7°F0.4°C 53% 5.2 mph N8.4 kmh N 11.4 mph18.3 kmh 30.31 in1026.4 mb 0.00 in0.0 mm 0.00 in0.0 mm 0.00 in0.0 mm
05:25 PM 49.1°F9.5°C 33.2°F0.7°C 54% 5.2 mph N8.4 kmh N 11.4 mph18.3 kmh 30.31 in1026.4 mb 0.00 in0.0 mm 0.00 in0.0 mm 0.00 in0.0 mm
05:30 PM 48.9°F9.4°C 32.6°F0.3°C 53% 5.4 mph N8.7 kmh N 11.4 mph18.3 kmh 30.31 in1026.4 mb 0.00 in0.0 mm 0.00 in0.0 mm 0.00 in0.0 mm
05:35 PM 48.7°F9.3°C 32.8°F0.4°C 54% 4.5 mph N7.2 kmh N 10.7 mph17.2 kmh 30.32 in1026.8 mb 0.00 in0.0 mm 0.00 in0.0 mm 0.00 in0.0 mm
05:40 PM 48.6°F9.2°C 32.7°F0.4°C 54% 2.9 mph NNW4.7 kmh NNW 9.8 mph15.8 kmh 30.32 in1026.8 mb 0.00 in0.0 mm 0.00 in0.0 mm 0.00 in0.0 mm
05:45 PM 48.6°F9.2°C 32.7°F0.4°C 54% 2.6 mph NW4.2 kmh NW 8.3 mph13.4 kmh 30.32 in1026.8 mb 0.00 in0.0 mm 0.00 in0.0 mm 0.00 in0.0 mm
05:50 PM 48.6°F9.2°C 32.7°F0.4°C 54% 4.1 mph WNW6.6 kmh WNW 9.8 mph15.8 kmh 30.32 in1026.8 mb 0.00 in0.0 mm 0.00 in0.0 mm 0.00 in0.0 mm
05:55 PM 48.6°F9.2°C 32.7°F0.4°C 54% 4.6 mph WNW7.4 kmh WNW 9.8 mph15.8 kmh 30.32 in1026.8 mb 0.00 in0.0 mm 0.00 in0.0 mm 0.00 in0.0 mm
06:00 PM 48.6°F9.2°C 33.1°F0.6°C 55% 4.4 mph NW7.1 kmh NW 9.8 mph15.8 kmh 30.32 in1026.8 mb 0.00 in0.0 mm 0.00 in0.0 mm 0.00 in0.0 mm
06:05 PM 48.7°F9.3°C 33.3°F0.7°C 55% 4.7 mph NW7.6 kmh NW 9.8 mph15.8 kmh 30.33 in1027.1 mb 0.00 in0.0 mm 0.00 in0.0 mm 0.00 in0.0 mm
06:10 PM 48.7°F9.3°C 32.8°F0.4°C 54% 4.7 mph NW7.6 kmh NW 9.2 mph14.8 kmh 30.33 in1027.1 mb 0.00 in0.0 mm 0.00 in0.0 mm 0.00 in0.0 mm
06:15 PM 48.6°F9.2°C 32.7°F0.4°C 54% 4.4 mph NW7.1 kmh NW 9.2 mph14.8 kmh 30.32 in1026.8 mb 0.00 in0.0 mm 0.00 in0.0 mm 0.00 in0.0 mm
06:20 PM 48.7°F9.3°C 32.8°F0.4°C 54% 3.9 mph NW6.3 kmh NW 9.8 mph15.8 kmh 30.33 in1027.1 mb 0.00 in0.0 mm 0.00 in0.0 mm 0.00 in0.0 mm
06:25 PM 48.7°F9.3°C 32.8°F0.4°C 54% 4.5 mph NW7.2 kmh NW 10.7 mph17.2 kmh 30.33 in1027.1 mb 0.00 in0.0 mm 0.00 in0.0 mm 0.00 in0.0 mm
06:30 PM 48.7°F9.3°C 32.8°F0.4°C 54% 5.2 mph NW8.4 kmh NW 10.7 mph17.2 kmh 30.33 in1027.1 mb 0.00 in0.0 mm 0.00 in0.0 mm 0.00 in0.0 mm
06:35 PM 48.7°F9.3°C 32.8°F0.4°C 54% 4.6 mph NW7.4 kmh NW 9.8 mph15.8 kmh 30.34 in1027.4 mb 0.00 in0.0 mm 0.00 in0.0 mm 0.00 in0.0 mm
06:40 PM 48.6°F9.2°C 32.7°F0.4°C 54% 4.1 mph NW6.6 kmh NW 9.8 mph15.8 kmh 30.34 in1027.4 mb 0.00 in0.0 mm 0.00 in0.0 mm 0.00 in0.0 mm
06:45 PM 48.6°F9.2°C 32.2°F0.1°C 53% 4.3 mph NW6.9 kmh NW 9.8 mph15.8 kmh 30.34 in1027.4 mb 0.00 in0.0 mm 0.00 in0.0 mm 0.00 in0.0 mm
06:50 PM 48.6°F9.2°C 32.2°F0.1°C 53% 4.1 mph NW6.6 kmh NW 9.2 mph14.8 kmh 30.34 in1027.4 mb 0.00 in0.0 mm 0.00 in0.0 mm 0.00 in0.0 mm
06:55 PM 48.6°F9.2°C 32.2°F0.1°C 53% 3.7 mph NW6.0 kmh NW 8.3 mph13.4 kmh 30.34 in1027.4 mb 0.00 in0.0 mm 0.00 in0.0 mm 0.00 in0.0 mm
07:00 PM 48.6°F9.2°C 32.2°F0.1°C 53% 3.6 mph NNW5.8 kmh NNW 8.3 mph13.4 kmh 30.35 in1027.8 mb 0.00 in0.0 mm 0.00 in0.0 mm 0.00 in0.0 mm
07:05 PM 48.4°F9.1°C 32.0°F0.0°C 53% 3.4 mph NW5.5 kmh NW 7.6 mph12.2 kmh 30.34 in1027.4 mb 0.00 in0.0 mm 0.00 in0.0 mm 0.00 in0.0 mm
07:10 PM 48.4°F9.1°C 32.0°F0.0°C 53% 3.5 mph NW5.6 kmh NW 7.6 mph12.2 kmh 30.35 in1027.8 mb 0.00 in0.0 mm 0.00 in0.0 mm 0.00 in0.0 mm
07:15 PM 48.2°F9.0°C 31.9°F-0.1°C 53% 2.6 mph NW4.2 kmh NW 7.6 mph12.2 kmh 30.34 in1027.4 mb 0.00 in0.0 mm 0.00 in0.0 mm 0.00 in0.0 mm
07:20 PM 48.0°F8.9°C 32.2°F0.1°C 54% 1.9 mph NW3.1 kmh NW 6.9 mph11.1 kmh 30.35 in1027.8 mb 0.00 in0.0 mm 0.00 in0.0 mm 0.00 in0.0 mm
07:25 PM 48.2°F9.0°C 31.9°F-0.1°C 53% 3.0 mph NW4.8 kmh NW 9.2 mph14.8 kmh 30.35 in1027.8 mb 0.00 in0.0 mm 0.00 in0.0 mm 0.00 in0.0 mm
07:30 PM 48.4°F9.1°C 32.0°F0.0°C 53% 5.3 mph NNW8.5 kmh NNW 11.4 mph18.3 kmh 30.35 in1027.8 mb 0.00 in0.0 mm 0.00 in0.0 mm 0.00 in0.0 mm
07:35 PM 48.6°F9.2°C 32.2°F0.1°C 53% 6.4 mph NNW10.3 kmh NNW 11.4 mph18.3 kmh 30.35 in1027.8 mb 0.00 in0.0 mm 0.00 in0.0 mm 0.00 in0.0 mm
07:40 PM 48.4°F9.1°C 32.0°F0.0°C 53% 4.9 mph NW7.9 kmh NW 11.4 mph18.3 kmh 30.35 in1027.8 mb 0.00 in0.0 mm 0.00 in0.0 mm 0.00 in0.0 mm
07:45 PM 48.4°F9.1°C 32.5°F0.3°C 54% 3.4 mph NW5.5 kmh NW 9.2 mph14.8 kmh 30.35 in1027.8 mb 0.00 in0.0 mm 0.00 in0.0 mm 0.00 in0.0 mm
07:50 PM 48.4°F9.1°C 32.5°F0.3°C 54% 4.0 mph NW6.4 kmh NW 9.2 mph14.8 kmh 30.35 in1027.8 mb 0.00 in0.0 mm 0.00 in0.0 mm 0.00 in0.0 mm
07:55 PM 48.4°F9.1°C 32.5°F0.3°C 54% 5.3 mph N8.5 kmh N 12.1 mph19.5 kmh 30.35 in1027.8 mb 0.00 in0.0 mm 0.00 in0.0 mm 0.00 in0.0 mm
08:00 PM 48.6°F9.2°C 32.7°F0.4°C 54% 5.7 mph N9.2 kmh N 13.0 mph20.9 kmh 30.35 in1027.8 mb 0.00 in0.0 mm 0.00 in0.0 mm 0.00 in0.0 mm
08:05 PM 48.7°F9.3°C 32.8°F0.4°C 54% 6.8 mph NNW10.9 kmh NNW 14.5 mph23.3 kmh 30.35 in1027.8 mb 0.00 in0.0 mm 0.00 in0.0 mm 0.00 in0.0 mm
08:10 PM 48.7°F9.3°C 33.3°F0.7°C 55% 7.4 mph NW11.9 kmh NW 14.5 mph23.3 kmh 30.35 in1027.8 mb 0.00 in0.0 mm 0.00 in0.0 mm 0.00 in0.0 mm
08:15 PM 48.7°F9.3°C 33.3°F0.7°C 55% 6.8 mph NW10.9 kmh NW 13.0 mph20.9 kmh 30.35 in1027.8 mb 0.00 in0.0 mm 0.00 in0.0 mm 0.00 in0.0 mm
08:20 PM 48.7°F9.3°C 33.8°F1.0°C 56% 6.2 mph NNW10.0 kmh NNW 13.0 mph20.9 kmh 30.35 in1027.8 mb 0.00 in0.0 mm 0.00 in0.0 mm 0.00 in0.0 mm
08:25 PM 48.7°F9.3°C 34.2°F1.2°C 57% 5.8 mph NNW9.3 kmh NNW 11.4 mph18.3 kmh 30.35 in1027.8 mb 0.00 in0.0 mm 0.00 in0.0 mm 0.00 in0.0 mm
08:30 PM 48.6°F9.2°C 34.0°F1.1°C 57% 5.6 mph NW9.0 kmh NW 11.4 mph18.3 kmh 30.35 in1027.8 mb 0.00 in0.0 mm 0.00 in0.0 mm 0.00 in0.0 mm
08:35 PM 48.4°F9.1°C 35.6°F2.0°C 61% 6.7 mph NW10.8 kmh NW 15.9 mph25.6 kmh 30.35 in1027.8 mb 0.00 in0.0 mm 0.00 in0.0 mm 0.00 in0.0 mm
08:40 PM 48.2°F9.0°C 35.4°F1.9°C 61% 7.9 mph NW12.7 kmh NW 15.9 mph25.6 kmh 30.35 in1027.8 mb 0.00 in0.0 mm 0.00 in0.0 mm 0.00 in0.0 mm
08:45 PM 48.2°F9.0°C 35.4°F1.9°C 61% 7.1 mph NW11.4 kmh NW 15.2 mph24.5 kmh 30.35 in1027.8 mb 0.00 in0.0 mm 0.00 in0.0 mm 0.00 in0.0 mm
08:50 PM 48.2°F9.0°C 35.8°F2.1°C 62% 6.0 mph NW9.7 kmh NW 15.2 mph24.5 kmh 30.35 in1027.8 mb 0.00 in0.0 mm 0.00 in0.0 mm 0.00 in0.0 mm
08:55 PM 48.2°F9.0°C 35.4°F1.9°C 61% 5.9 mph NW9.5 kmh NW 12.1 mph19.5 kmh 30.35 in1027.8 mb 0.00 in0.0 mm 0.00 in0.0 mm 0.00 in0.0 mm
09:00 PM 48.2°F9.0°C 35.8°F2.1°C 62% 5.9 mph NW9.5 kmh NW 12.1 mph19.5 kmh 30.35 in1027.8 mb 0.00 in0.0 mm 0.00 in0.0 mm 0.00 in0.0 mm
09:05 PM 48.2°F9.0°C 36.2°F2.3°C 63% 6.2 mph NNW10.0 kmh NNW 13.0 mph20.9 kmh 30.35 in1027.8 mb 0.00 in0.0 mm 0.00 in0.0 mm 0.00 in0.0 mm
09:10 PM 48.2°F9.0°C 36.2°F2.3°C 63% 5.9 mph NNW9.5 kmh NNW 13.0 mph20.9 kmh 30.35 in1027.8 mb 0.00 in0.0 mm 0.00 in0.0 mm 0.00 in0.0 mm
09:15 PM 48.2°F9.0°C 36.2°F2.3°C 63% 4.3 mph NNW6.9 kmh NNW 11.4 mph18.3 kmh 30.35 in1027.8 mb 0.00 in0.0 mm 0.00 in0.0 mm 0.00 in0.0 mm
09:20 PM 48.2°F9.0°C 36.2°F2.3°C 63% 3.5 mph NW5.6 kmh NW 9.2 mph14.8 kmh 30.35 in1027.8 mb 0.00 in0.0 mm 0.00 in0.0 mm 0.00 in0.0 mm
09:25 PM 48.2°F9.0°C 36.6°F2.6°C 64% 4.4 mph NW7.1 kmh NW 11.4 mph18.3 kmh 30.35 in1027.8 mb 0.00 in0.0 mm 0.00 in0.0 mm 0.00 in0.0 mm
09:30 PM 48.2°F9.0°C 36.6°F2.6°C 64% 4.5 mph NNW7.2 kmh NNW 11.4 mph18.3 kmh 30.35 in1027.8 mb 0.00 in0.0 mm 0.00 in0.0 mm 0.00 in0.0 mm
09:35 PM 48.2°F9.0°C 37.0°F2.8°C 65% 3.8 mph NW6.1 kmh NW 9.2 mph14.8 kmh 30.36 in1028.1 mb 0.00 in0.0 mm 0.00 in0.0 mm 0.00 in0.0 mm
09:40 PM 48.4°F9.1°C 37.2°F2.9°C 65% 4.6 mph NNW7.4 kmh NNW 14.5 mph23.3 kmh 30.36 in1028.1 mb 0.00 in0.0 mm 0.00 in0.0 mm 0.00 in0.0 mm
09:45 PM 48.4°F9.1°C 37.6°F3.1°C 66% 5.1 mph NNW8.2 kmh NNW 14.5 mph23.3 kmh 30.36 in1028.1 mb 0.00 in0.0 mm 0.00 in0.0 mm 0.00 in0.0 mm
09:50 PM 48.4°F9.1°C 37.9°F3.3°C 67% 4.8 mph NNW7.7 kmh NNW 13.0 mph20.9 kmh 30.36 in1028.1 mb 0.00 in0.0 mm 0.00 in0.0 mm 0.00 in0.0 mm
09:55 PM 48.2°F9.0°C 38.5°F3.6°C 69% 5.0 mph N8.0 kmh N 13.0 mph20.9 kmh 30.36 in1028.1 mb 0.00 in0.0 mm 0.00 in0.0 mm 0.00 in0.0 mm
10:00 PM 47.8°F8.8°C 38.5°F3.6°C 70% 5.4 mph NNE8.7 kmh NNE 12.1 mph19.5 kmh 30.36 in1028.1 mb 0.00 in0.0 mm 0.00 in0.0 mm 0.00 in0.0 mm
10:05 PM 47.7°F8.7°C 39.4°F4.1°C 73% 4.3 mph N6.9 kmh N 12.1 mph19.5 kmh 30.36 in1028.1 mb 0.00 in0.0 mm 0.00 in0.0 mm 0.00 in0.0 mm
10:10 PM 47.7°F8.7°C 38.7°F3.7°C 71% 3.5 mph N5.6 kmh N 9.2 mph14.8 kmh 30.35 in1027.8 mb 0.00 in0.0 mm 0.00 in0.0 mm 0.00 in0.0 mm
10:15 PM 47.8°F8.8°C 38.2°F3.4°C 69% 4.0 mph N6.4 kmh N 9.2 mph14.8 kmh 30.36 in1028.1 mb 0.00 in0.0 mm 0.00 in0.0 mm 0.00 in0.0 mm
10:20 PM 48.0°F8.9°C 38.0°F3.3°C 68% 3.2 mph N5.1 kmh N 9.2 mph14.8 kmh 30.36 in1028.1 mb 0.00 in0.0 mm 0.00 in0.0 mm 0.00 in0.0 mm
10:25 PM 48.2°F9.0°C 37.8°F3.2°C 67% 2.2 mph N3.5 kmh N 7.6 mph12.2 kmh 30.36 in1028.1 mb 0.00 in0.0 mm 0.00 in0.0 mm 0.00 in0.0 mm
10:30 PM 48.2°F9.0°C 37.8°F3.2°C 67% 1.9 mph NNW3.1 kmh NNW 6.0 mph9.7 kmh 30.36 in1028.1 mb 0.00 in0.0 mm 0.00 in0.0 mm 0.00 in0.0 mm
10:35 PM 48.4°F9.1°C 37.9°F3.3°C 67% 2.4 mph NNW3.9 kmh NNW 9.2 mph14.8 kmh 30.36 in1028.1 mb 0.00 in0.0 mm 0.00 in0.0 mm 0.00 in0.0 mm
10:40 PM 48.4°F9.1°C 37.9°F3.3°C 67% 3.0 mph N4.8 kmh N 9.2 mph14.8 kmh 30.36 in1028.1 mb 0.00 in0.0 mm 0.00 in0.0 mm 0.00 in0.0 mm
10:45 PM 48.4°F9.1°C 37.9°F3.3°C 67% 2.2 mph N3.5 kmh N 7.6 mph12.2 kmh 30.36 in1028.1 mb 0.00 in0.0 mm 0.00 in0.0 mm 0.00 in0.0 mm
10:50 PM 48.2°F9.0°C 37.8°F3.2°C 67% 1.7 mph NNW2.7 kmh NNW 6.0 mph9.7 kmh 30.36 in1028.1 mb 0.00 in0.0 mm 0.00 in0.0 mm 0.00 in0.0 mm
10:55 PM 48.2°F9.0°C 37.8°F3.2°C 67% 1.9 mph NW3.1 kmh NW 6.0 mph9.7 kmh 30.37 in1028.4 mb 0.00 in0.0 mm 0.00 in0.0 mm 0.00 in0.0 mm
11:00 PM 48.2°F9.0°C 38.1°F3.4°C 68% 2.3 mph NW3.7 kmh NW 7.6 mph12.2 kmh 30.36 in1028.1 mb 0.00 in0.0 mm 0.00 in0.0 mm 0.00 in0.0 mm
11:05 PM 48.0°F8.9°C 38.3°F3.5°C 69% 3.1 mph NW5.0 kmh NW 9.2 mph14.8 kmh 30.37 in1028.4 mb 0.00 in0.0 mm 0.00 in0.0 mm 0.00 in0.0 mm
11:10 PM 47.5°F8.6°C 39.3°F4.1°C 73% 3.2 mph WNW5.1 kmh WNW 9.2 mph14.8 kmh 30.36 in1028.1 mb 0.00 in0.0 mm 0.00 in0.0 mm 0.00 in0.0 mm
11:15 PM 47.1°F8.4°C 39.6°F4.2°C 75% 2.8 mph WNW4.5 kmh WNW 8.3 mph13.4 kmh 30.36 in1028.1 mb 0.00 in0.0 mm 0.00 in0.0 mm 0.00 in0.0 mm
11:20 PM 46.6°F8.1°C 40.1°F4.5°C 78% 3.0 mph WNW4.8 kmh WNW 8.3 mph13.4 kmh 30.36 in1028.1 mb 0.00 in0.0 mm 0.00 in0.0 mm 0.00 in0.0 mm
11:25 PM 46.4°F8.0°C 40.2°F4.6°C 79% 2.9 mph NW4.7 kmh NW 8.3 mph13.4 kmh 30.36 in1028.1 mb 0.00 in0.0 mm 0.00 in0.0 mm 0.00 in0.0 mm
11:30 PM 46.4°F8.0°C 40.2°F4.6°C 79% 3.0 mph NW4.8 kmh NW 8.3 mph13.4 kmh 30.36 in1028.1 mb 0.00 in0.0 mm 0.00 in0.0 mm 0.00 in0.0 mm
11:35 PM 46.8°F8.2°C 40.3°F4.6°C 78% 3.1 mph NW5.0 kmh NW 7.6 mph12.2 kmh 30.36 in1028.1 mb 0.00 in0.0 mm 0.00 in0.0 mm 0.00 in0.0 mm
11:40 PM 46.8°F8.2°C 40.3°F4.6°C 78% 2.6 mph WNW4.2 kmh WNW 6.9 mph11.1 kmh 30.36 in1028.1 mb 0.00 in0.0 mm 0.00 in0.0 mm 0.00 in0.0 mm
11:45 PM 46.8°F8.2°C 40.3°F4.6°C 78% 2.7 mph WNW4.3 kmh WNW 9.2 mph14.8 kmh 30.35 in1027.8 mb 0.00 in0.0 mm 0.00 in0.0 mm 0.00 in0.0 mm
11:50 PM 46.9°F8.3°C 40.1°F4.5°C 77% 2.8 mph WNW4.5 kmh WNW 9.2 mph14.8 kmh 30.36 in1028.1 mb 0.00 in0.0 mm 0.00 in0.0 mm 0.00 in0.0 mm
11:55 PM 47.1°F8.4°C 40.3°F4.6°C 77% 2.1 mph WNW3.4 kmh WNW 7.6 mph12.2 kmh 30.35 in1027.8 mb 0.00 in0.0 mm 0.00 in0.0 mm 0.00 in0.0 mm